sensor_id;sensor_type;location;lat;lon;timestamp;temperature;humidity
49379;DHT22;35254;47.990;-1.608;2022-08-21T20:42:23;18.80;82.00
49379;DHT22;35254;47.990;-1.608;2022-08-21T20:44:48;19.40;82.40
49379;DHT22;35254;47.990;-1.608;2022-08-21T20:47:14;19.40;82.70
49379;DHT22;35254;47.990;-1.608;2022-08-21T20:49:53;19.40;82.30
49379;DHT22;35254;47.990;-1.608;2022-08-21T20:52:21;19.40;82.40
49379;DHT22;35254;47.990;-1.608;2022-08-21T20:54:54;19.30;82.20
49379;DHT22;35254;47.990;-1.608;2022-08-21T21:00:25;19.40;82.20
49379;DHT22;35254;47.990;-1.608;2022-08-21T21:03:00;19.30;82.00
49379;DHT22;35254;47.990;-1.608;2022-08-21T21:05:38;19.20;82.00
49379;DHT22;35254;47.990;-1.608;2022-08-21T21:10:48;19.20;82.40
49379;DHT22;35254;47.990;-1.608;2022-08-21T21:13:44;19.30;82.40
49379;DHT22;35254;47.990;-1.608;2022-08-21T21:16:15;19.20;82.70
49379;DHT22;35254;47.990;-1.608;2022-08-21T21:18:49;19.30;82.60
49379;DHT22;35254;47.990;-1.608;2022-08-21T21:24:12;19.20;82.70
49379;DHT22;35254;47.990;-1.608;2022-08-21T21:27:01;19.20;82.40
49379;DHT22;35254;47.990;-1.608;2022-08-21T21:29:40;19.20;82.30
49379;DHT22;35254;47.990;-1.608;2022-08-21T21:32:08;19.20;82.30
49379;DHT22;35254;47.990;-1.608;2022-08-21T21:34:41;19.20;82.40
49379;DHT22;35254;47.990;-1.608;2022-08-21T21:37:20;19.20;82.40
49379;DHT22;35254;47.990;-1.608;2022-08-21T21:39:52;19.20;82.70
49379;DHT22;35254;47.990;-1.608;2022-08-21T21:45:31;19.20;82.50
49379;DHT22;35254;47.990;-1.608;2022-08-21T21:51:02;19.20;82.60
49379;DHT22;35254;47.990;-1.608;2022-08-21T22:01:55;19.00;82.80
49379;DHT22;35254;47.990;-1.608;2022-08-21T22:04:30;19.00;83.30
49379;DHT22;35254;47.990;-1.608;2022-08-21T22:10:41;18.90;83.30
49379;DHT22;35254;47.990;-1.608;2022-08-21T22:13:31;18.80;83.20
49379;DHT22;35254;47.990;-1.608;2022-08-21T22:15:57;18.80;83.30
49379;DHT22;35254;47.990;-1.608;2022-08-21T22:18:31;18.90;83.00
49379;DHT22;35254;47.990;-1.608;2022-08-21T22:21:09;18.80;83.00
49379;DHT22;35254;47.990;-1.608;2022-08-21T22:23:43;18.90;82.90
49379;DHT22;35254;47.990;-1.608;2022-08-21T22:26:14;18.90;82.90
49379;DHT22;35254;47.990;-1.608;2022-08-21T22:28:43;18.90;82.70
49379;DHT22;35254;47.990;-1.608;2022-08-21T22:34:11;18.90;82.60
49379;DHT22;35254;47.990;-1.608;2022-08-21T22:36:45;18.80;82.60
49379;DHT22;35254;47.990;-1.608;2022-08-21T22:39:15;18.80;82.60
49379;DHT22;35254;47.990;-1.608;2022-08-21T22:41:43;18.80;82.70
49379;DHT22;35254;47.990;-1.608;2022-08-21T22:44:21;18.90;82.80
49379;DHT22;35254;47.990;-1.608;2022-08-21T22:46:55;18.90;82.90
49379;DHT22;35254;47.990;-1.608;2022-08-21T22:52:07;18.90;82.80
49379;DHT22;35254;47.990;-1.608;2022-08-21T22:54:38;18.90;82.80
49379;DHT22;35254;47.990;-1.608;2022-08-21T22:57:09;18.90;82.80
49379;DHT22;35254;47.990;-1.608;2022-08-21T22:59:39;18.90;82.90
49379;DHT22;35254;47.990;-1.608;2022-08-21T23:02:21;18.80;83.40
49379;DHT22;35254;47.990;-1.608;2022-08-21T23:04:49;18.80;83.80
49379;DHT22;35254;47.990;-1.608;2022-08-21T23:07:35;18.80;83.60
49379;DHT22;35254;47.990;-1.608;2022-08-21T23:10:29;18.80;83.80
49379;DHT22;35254;47.990;-1.608;2022-08-21T23:13:01;18.80;84.00
49379;DHT22;35254;47.990;-1.608;2022-08-21T23:18:23;18.70;83.90
49379;DHT22;35254;47.990;-1.608;2022-08-21T23:21:41;18.70;84.20
49379;DHT22;35254;47.990;-1.608;2022-08-21T23:26:54;18.70;83.80
49379;DHT22;35254;47.990;-1.608;2022-08-21T23:29:43;18.70;83.70
49379;DHT22;35254;47.990;-1.608;2022-08-21T23:37:39;18.70;84.20
49379;DHT22;35254;47.990;-1.608;2022-08-21T23:43:14;18.70;84.20
